WSSSVRMM

Guest
Details From WSSS - Singapore Changi Intl
To VRMM - Male Intl
Flight Number -
Tags Generated
Created
Modified
Stats Distance 1,834 nm / 3,397 km
Max Altitude 0 ft / 0 m
Waypoints 3
Social Downloads 1
Likes 0
Share VATSIM

Download

Looking for another format? Having issues loading an existing format? Contact us
Advertisement - Login to hide

Notes

Generated

Route

WSSS MLE88 VRMM

ID Type Via Altitude Latitude Longitude Leg Dist Tot Dist Heading (true) Name
O WSSS APT - 0 ft / 0 m 1.34897˚ 103.97750˚ - 0 nm - -
MLE88 FIX - 0 ft / 0 m 4.20215˚ 73.63045˚ 1828 nm 1828 nm 276° / 274° -
O VRMM APT - 0 ft / 0 m 4.20629˚ 73.52889˚ 6 nm 1834 nm 272° / 272° -

Altitude Profile

Advertisement - Login to hide

Weather


0- 5 10 15 20 25 30 35+ Temperature / ° C

Clouds and Precipitation
Forecast for 2017-12-13 00:00 UTC. Updated an hour ago

Ground ~20,000 ft ~40,000 ft Winds

WSSS

Details ICAO WSSS (SIN)
Name Singapore Changi Intl. Airport
Region Singapore
Timezone Unknown (UTC+0.0)
Stats Elevation 22 ft / 7 m (AMSL)
Location 1.351917° 103.995603°
Runways 3
Magnetic Variation 0.229° E

METAR

WSSS 130000Z 32003KT 250V040 7000 FEW018 BKN130 26/25 Q1012 NOSIG

Decode

TAF

TAF WSSS 122300Z 1300/1406 34008KT 9999 FEW018CB SCT020 TEMPO 1306/1310 3000 TSRA FEW012CB BKN015

Decode

Departure Runways

ID Width Length Bearing (true) Bearing (mag) Surface Threshold Offset Overrun Length
02C 164 ft / 50 m 13,619 ft / 4,151 m 22.80° 22.57° Asphalt 200 ft / 61 m 0 ft / 0 m
02L 164 ft / 50 m 14,308 ft / 4,361 m 22.69° 22.46° Asphalt 200 ft / 61 m 0 ft / 0 m
02R 164 ft / 50 m 10,072 ft / 3,070 m 22.74° 22.51° Asphalt 600 ft / 183 m 0 ft / 0 m
20C 164 ft / 50 m 13,619 ft / 4,151 m 202.80° 202.57° Asphalt 200 ft / 61 m 0 ft / 0 m
20L 164 ft / 50 m 10,072 ft / 3,070 m 202.74° 202.51° Asphalt 499 ft / 152 m 0 ft / 0 m
20R 164 ft / 50 m 14,308 ft / 4,361 m 202.69° 202.46° Asphalt 3,301 ft / 1,006 m 0 ft / 0 m

VRMM

Details ICAO VRMM (MLE)
Name MALE INTL
Region Maldives
Timezone Indian/Maldives (UTC+5.0)
Stats Elevation 6 ft / 2 m (AMSL)
Location 4.191832° 73.529128°
Runways 1
Magnetic Variation 2.835° W

METAR

VRMM 130000Z 18005KT 9999 FEW019 28/23 Q1012 NOSIG

Decode

TAF

TAF VRMM 122300Z 1300/1406 18006KT 9999 FEW019

Decode

Destination Runways

ID Width Length Bearing (true) Bearing (mag) Surface Threshold Offset Overrun Length
18 148 ft / 45 m 10,556 ft / 3,218 m 179.06° 181.89° Asphalt 328 ft / 100 m 201 ft / 61 m
36 148 ft / 45 m 10,556 ft / 3,218 m 359.06° 1.89° Asphalt 952 ft / 290 m 238 ft / 73 m

Approach Navaids

Runway Type Ident Frequency Range Bearing (true) Bearing (mag) Slope Elevation
36 Localiser IML 108.70 MHz 18 nm / 33 km 359.58° 2.41° - 5 ft / 2 m (AMSL)
36 Glidescope IML 108.70 MHz 10 nm / 19 km 359.06° 1.89° 3.00° 5 ft / 2 m (AMSL)
36 DME IML 108.70 MHz 18 nm / 33 km - - - 22 ft / 7 m (AMSL)

Popular Alternatives